createdAt,value
2019-03-01T00:01:35.726Z,12.07
2019-03-01T00:04:25.627Z,12.13
2019-03-01T00:07:37.555Z,11.67
2019-03-01T00:10:58.611Z,11.80
2019-03-01T00:14:13.668Z,10.87
2019-03-01T00:17:01.863Z,11.07
2019-03-01T00:20:20.271Z,11.10
2019-03-01T00:23:21.364Z,9.83
2019-03-01T00:25:59.586Z,11.80
2019-03-01T00:28:51.947Z,10.00
2019-03-01T00:31:24.129Z,9.53
2019-03-01T00:34:20.051Z,11.13
2019-03-01T00:37:27.689Z,9.83
2019-03-01T00:40:20.397Z,9.67
2019-03-01T00:43:27.795Z,9.10
2019-03-01T00:45:54.677Z,9.47
2019-03-01T00:48:21.431Z,10.23
2019-03-01T00:50:48.355Z,10.03
2019-03-01T00:53:15.149Z,9.73
2019-03-01T00:55:41.883Z,10.77
2019-03-01T00:58:08.779Z,10.50
2019-03-01T01:00:39.935Z,10.63
2019-03-01T01:03:06.904Z,10.70
2019-03-01T01:05:33.771Z,10.90
2019-03-01T01:08:00.511Z,10.77
2019-03-01T01:10:27.371Z,10.97
2019-03-01T01:12:54.309Z,11.47
2019-03-01T01:15:21.322Z,10.70
2019-03-01T01:17:48.059Z,16.53
2019-03-01T01:20:15.087Z,11.40
2019-03-01T01:22:41.975Z,11.47
2019-03-01T01:25:08.895Z,10.83
2019-03-01T01:27:36.437Z,11.53
2019-03-01T01:30:04.196Z,10.43
2019-03-01T01:32:31.184Z,10.83
2019-03-01T01:34:58.152Z,10.70
2019-03-01T01:37:24.913Z,11.37
2019-03-01T01:39:52.071Z,11.00
2019-03-01T01:42:18.993Z,11.00
2019-03-01T01:44:45.930Z,10.73
2019-03-01T01:47:12.764Z,11.03
2019-03-01T01:49:39.763Z,10.40
2019-03-01T01:52:06.623Z,9.87
2019-03-01T01:54:33.399Z,9.70
2019-03-01T01:57:00.154Z,11.03
2019-03-01T01:59:26.943Z,10.10
2019-03-01T02:01:53.799Z,10.53
2019-03-01T02:04:20.651Z,10.40
2019-03-01T02:06:47.511Z,10.17
2019-03-01T02:09:18.415Z,9.93
2019-03-01T02:11:45.140Z,10.40
2019-03-01T02:14:12.043Z,9.23
2019-03-01T02:16:38.827Z,10.33
2019-03-01T02:19:06.042Z,10.80
2019-03-01T02:21:32.783Z,8.60
2019-03-01T02:23:59.523Z,9.63
2019-03-01T02:26:26.344Z,8.80
2019-03-01T02:28:53.149Z,8.80
2019-03-01T02:31:20.049Z,8.30
2019-03-01T02:33:47.037Z,8.07
2019-03-01T02:36:13.922Z,7.57
2019-03-01T02:38:40.774Z,6.63
2019-03-01T02:41:07.620Z,7.03
2019-03-01T02:43:34.363Z,7.50
2019-03-01T02:46:01.224Z,6.53
2019-03-01T02:48:28.095Z,6.10
2019-03-01T02:50:54.935Z,5.43
2019-03-01T02:53:21.699Z,5.83
2019-03-01T02:55:48.602Z,6.27
2019-03-01T02:58:15.658Z,6.03
2019-03-01T03:00:42.450Z,5.50
2019-03-01T03:03:09.273Z,5.60
2019-03-01T03:05:51.736Z,5.27
2019-03-01T03:08:18.715Z,5.17
2019-03-01T03:10:45.564Z,5.40
2019-03-01T03:13:12.295Z,5.37
2019-03-01T03:15:41.913Z,4.67
2019-03-01T03:18:08.733Z,5.07
2019-03-01T03:20:35.792Z,5.17
2019-03-01T03:23:02.799Z,4.83
2019-03-01T03:25:29.726Z,5.90
2019-03-01T03:27:56.437Z,6.00
2019-03-01T03:30:23.414Z,5.50
2019-03-01T03:32:50.628Z,5.60
2019-03-01T03:35:17.487Z,7.17
2019-03-01T03:37:44.372Z,5.90
2019-03-01T03:40:11.520Z,6.53
2019-03-01T03:42:38.490Z,5.97
2019-03-01T03:45:06.745Z,6.07
2019-03-01T03:47:33.692Z,6.63
2019-03-01T03:50:00.574Z,6.67
2019-03-01T03:52:27.687Z,6.90
2019-03-01T03:54:54.439Z,7.13
2019-03-01T03:57:21.524Z,7.43
2019-03-01T03:59:48.480Z,7.37
2019-03-01T04:02:15.320Z,8.80
2019-03-01T04:04:42.277Z,8.57
2019-03-01T04:07:09.548Z,7.70
2019-03-01T04:09:36.408Z,8.33
2019-03-01T04:12:03.392Z,8.60
2019-03-01T04:14:30.144Z,8.80
2019-03-01T04:16:57.031Z,8.37
2019-03-01T04:19:24.040Z,8.90
2019-03-01T04:21:50.876Z,9.13
2019-03-01T04:24:17.888Z,9.17
2019-03-01T04:26:44.672Z,8.27
2019-03-01T04:29:11.608Z,9.40
2019-03-01T04:31:38.305Z,8.83
2019-03-01T04:34:06.059Z,9.17
2019-03-01T04:36:33.139Z,9.80
2019-03-01T04:38:59.957Z,8.77
2019-03-01T04:41:26.948Z,9.10
2019-03-01T04:43:53.799Z,8.90
2019-03-01T04:46:20.533Z,9.27
2019-03-01T04:48:47.340Z,9.33
2019-03-01T04:51:14.265Z,12.27
2019-03-01T04:53:41.352Z,10.17
2019-03-01T04:56:08.382Z,10.17
2019-03-01T04:58:35.375Z,9.50
2019-03-01T05:01:03.022Z,10.80
2019-03-01T05:03:29.894Z,10.37
2019-03-01T05:05:56.868Z,11.07
2019-03-01T05:08:23.737Z,11.00
2019-03-01T05:10:50.636Z,10.50
2019-03-01T05:13:17.591Z,11.60
2019-03-01T05:15:44.571Z,10.70
2019-03-01T05:18:11.468Z,13.43
2019-03-01T05:20:38.592Z,14.00
2019-03-01T05:23:05.491Z,11.73
2019-03-01T05:25:32.349Z,11.90
2019-03-01T05:27:59.293Z,12.90
2019-03-01T05:30:26.192Z,13.43
2019-03-01T05:32:53.139Z,12.23
2019-03-01T05:35:19.990Z,12.93
2019-03-01T05:37:47.035Z,13.43
2019-03-01T05:40:14.103Z,13.27
2019-03-01T05:42:41.159Z,13.53
2019-03-01T05:45:11.639Z,13.97
2019-03-01T05:47:38.377Z,13.50
2019-03-01T05:50:07.078Z,14.63
2019-03-01T05:52:34.104Z,13.77
2019-03-01T05:55:00.999Z,13.23
2019-03-01T05:57:27.815Z,14.03
2019-03-01T05:59:54.683Z,14.80
2019-03-01T06:02:35.111Z,14.80
2019-03-01T06:05:09.211Z,15.30
2019-03-01T06:07:54.798Z,15.30
2019-03-01T06:10:48.260Z,14.43
2019-03-01T06:13:58.376Z,14.90
2019-03-01T06:16:37.463Z,17.00
2019-03-01T06:19:30.179Z,15.60
2019-03-01T06:23:00.509Z,16.17
2019-03-01T06:25:40.855Z,15.97
2019-03-01T06:28:35.787Z,17.07
2019-03-01T06:31:34.463Z,16.70
2019-03-01T06:34:42.399Z,16.97
2019-03-01T06:37:36.639Z,21.25
2019-03-01T06:40:28.803Z,16.43
2019-03-01T06:43:42.859Z,15.83
2019-03-01T06:46:44.201Z,16.93
2019-03-01T06:49:20.159Z,16.10
2019-03-01T06:51:46.953Z,17.23
2019-03-01T06:54:13.800Z,16.77
2019-03-01T06:56:40.635Z,16.37
2019-03-01T06:59:07.532Z,16.40
2019-03-01T07:01:37.336Z,17.40
2019-03-01T07:04:07.955Z,15.87
2019-03-01T07:06:34.690Z,17.87
2019-03-01T07:09:01.691Z,17.57
2019-03-01T07:11:28.411Z,18.57
2019-03-01T07:13:55.354Z,16.57
2019-03-01T07:16:22.234Z,16.90
2019-03-01T07:18:48.967Z,21.63
2019-03-01T07:21:15.740Z,18.90
2019-03-01T07:23:42.549Z,15.00
2019-03-01T07:26:09.268Z,16.80
2019-03-01T07:28:36.152Z,16.83
2019-03-01T07:31:03.991Z,15.63
2019-03-01T07:33:31.009Z,16.33
2019-03-01T07:35:57.772Z,14.73
2019-03-01T07:38:24.479Z,13.80
2019-03-01T07:40:51.255Z,15.47
2019-03-01T07:43:18.128Z,15.27
2019-03-01T07:45:45.063Z,14.47
2019-03-01T07:48:11.855Z,13.87
2019-03-01T07:50:38.560Z,13.03
2019-03-01T07:53:05.698Z,12.53
2019-03-01T07:55:32.548Z,11.70
2019-03-01T07:57:59.327Z,12.83
2019-03-01T08:00:26.173Z,11.60
2019-03-01T08:02:52.891Z,11.30
2019-03-01T08:05:19.801Z,11.60
2019-03-01T08:07:55.806Z,11.87
2019-03-01T08:10:20.627Z,11.83
2019-03-01T08:12:44.123Z,11.80
2019-03-01T08:15:12.178Z,12.57
2019-03-01T08:17:38.922Z,13.33
2019-03-01T08:20:08.945Z,13.40
2019-03-01T08:22:47.564Z,13.60
2019-03-01T08:25:05.696Z,14.37
2019-03-01T08:27:32.589Z,13.77
2019-03-01T08:29:59.323Z,13.13
2019-03-01T08:32:27.487Z,13.37
2019-03-01T08:34:55.130Z,14.20
2019-03-01T08:37:21.983Z,13.93
2019-03-01T08:39:49.686Z,14.30
2019-03-01T08:42:16.708Z,14.30
2019-03-01T08:44:43.628Z,12.20
2019-03-01T08:47:10.671Z,11.67
2019-03-01T08:49:37.675Z,12.00
2019-03-01T08:52:04.555Z,10.53
2019-03-01T08:54:31.317Z,9.70
2019-03-01T08:56:58.427Z,10.27
2019-03-01T08:59:25.431Z,9.53
2019-03-01T09:01:52.399Z,9.77
2019-03-01T09:04:21.458Z,8.33
2019-03-01T09:06:47.877Z,7.97
2019-03-01T09:09:17.559Z,7.83
2019-03-01T09:11:44.697Z,7.43
2019-03-01T09:14:12.327Z,6.37
2019-03-01T09:16:40.961Z,5.97
2019-03-01T09:19:07.958Z,6.07
2019-03-01T09:21:34.864Z,5.90
2019-03-01T09:24:01.853Z,5.40
2019-03-01T09:26:28.755Z,6.20
2019-03-01T09:28:55.806Z,4.87
2019-03-01T09:31:22.773Z,3.93
2019-03-01T09:33:49.746Z,4.83
2019-03-01T09:36:23.195Z,4.50
2019-03-01T09:38:50.040Z,3.50
2019-03-01T09:41:17.071Z,3.90
2019-03-01T09:43:43.792Z,2.70
2019-03-01T09:46:10.767Z,3.13
2019-03-01T09:48:37.638Z,2.80
2019-03-01T09:51:07.301Z,2.77
2019-03-01T09:53:34.169Z,2.67
2019-03-01T09:56:02.280Z,2.27
2019-03-01T09:58:29.028Z,2.40
2019-03-01T10:01:00.299Z,2.20
2019-03-01T10:03:27.255Z,2.73
2019-03-01T10:05:54.183Z,2.70
2019-03-01T10:08:21.031Z,3.37
2019-03-01T10:10:47.973Z,5.10
2019-03-01T10:13:15.136Z,3.93
2019-03-01T10:15:42.024Z,3.63
2019-03-01T10:18:09.052Z,4.37
2019-03-01T10:20:36.053Z,4.00
2019-03-01T10:23:03.163Z,3.57
2019-03-01T10:25:31.359Z,3.83
2019-03-01T10:27:58.272Z,3.50
2019-03-01T10:30:25.235Z,3.63
2019-03-01T10:32:52.138Z,3.00
2019-03-01T10:35:19.226Z,2.80
2019-03-01T10:37:46.221Z,2.83
2019-03-01T10:40:15.191Z,2.97
2019-03-01T10:42:42.044Z,2.77
2019-03-01T10:45:12.042Z,3.70
2019-03-01T10:47:38.867Z,4.27
2019-03-01T10:50:06.954Z,3.90
2019-03-01T10:52:33.854Z,4.37
2019-03-01T10:55:00.718Z,4.07
2019-03-01T10:57:27.585Z,4.50
2019-03-01T10:59:54.536Z,5.03
2019-03-01T11:02:21.423Z,4.83
2019-03-01T11:04:48.287Z,5.20
2019-03-01T11:07:15.167Z,5.57
2019-03-01T11:09:41.920Z,5.47
2019-03-01T11:12:09.001Z,6.00
2019-03-01T11:14:35.984Z,6.17
2019-03-01T11:17:02.827Z,5.90
2019-03-01T11:19:29.711Z,6.87
2019-03-01T11:21:56.448Z,6.33
2019-03-01T11:24:23.443Z,6.53
2019-03-01T11:26:50.312Z,6.47
2019-03-01T11:29:17.187Z,7.10
2019-03-01T11:31:44.082Z,7.40
2019-03-01T11:34:10.935Z,7.23
2019-03-01T11:36:37.855Z,7.67
2019-03-01T11:39:05.317Z,6.50
2019-03-01T11:41:32.147Z,8.27
2019-03-01T11:43:58.947Z,6.50
2019-03-01T11:46:25.775Z,7.10
2019-03-01T11:48:52.639Z,6.57
2019-03-01T11:51:19.659Z,7.40
2019-03-01T11:53:46.479Z,6.90
2019-03-01T11:56:13.615Z,6.67
2019-03-01T11:58:40.583Z,7.80
2019-03-01T12:01:16.699Z,6.90
2019-03-01T12:03:36.439Z,11.97
2019-03-01T12:06:03.299Z,10.87
2019-03-01T12:08:30.267Z,11.33
2019-03-01T12:10:57.338Z,12.77
2019-03-01T12:13:24.380Z,14.53
2019-03-01T12:15:51.343Z,13.07
2019-03-01T12:18:18.095Z,14.40
2019-03-01T12:20:44.967Z,13.90
2019-03-01T12:23:11.727Z,14.77
2019-03-01T12:25:38.467Z,16.60
2019-03-01T12:28:05.464Z,17.87
2019-03-01T12:30:32.310Z,20.00
2019-03-01T12:32:59.178Z,21.57
2019-03-01T12:35:26.931Z,22.80
2019-03-01T12:37:53.809Z,24.50
2019-03-01T12:40:23.650Z,25.60
2019-03-01T12:42:50.801Z,29.00
2019-03-01T12:45:17.696Z,30.53
2019-03-01T12:47:44.776Z,33.33
2019-03-01T12:50:11.807Z,39.53
2019-03-01T12:52:38.784Z,38.67
2019-03-01T12:55:06.995Z,40.87
2019-03-01T12:57:33.873Z,39.27
2019-03-01T13:00:00.646Z,40.00
2019-03-01T13:02:27.515Z,41.63
2019-03-01T13:04:54.543Z,41.77
2019-03-01T13:07:21.473Z,40.80
2019-03-01T13:09:48.403Z,41.47
2019-03-01T13:12:15.321Z,42.20
2019-03-01T13:14:42.188Z,43.27
2019-03-01T13:17:08.962Z,40.93
2019-03-01T13:19:35.707Z,41.57
2019-03-01T13:22:02.907Z,41.17
2019-03-01T13:24:29.888Z,42.00
2019-03-01T13:26:56.779Z,43.37
2019-03-01T13:29:23.627Z,43.03
2019-03-01T13:31:50.513Z,43.70
2019-03-01T13:34:17.307Z,46.40
2019-03-01T13:36:44.112Z,47.20
2019-03-01T13:39:11.291Z,44.07
2019-03-01T13:41:38.303Z,43.87
2019-03-01T13:44:05.183Z,44.63
2019-03-01T13:46:33.418Z,46.47
2019-03-01T13:49:00.295Z,46.37
2019-03-01T13:51:27.123Z,46.93
2019-03-01T13:53:54.015Z,46.77
2019-03-01T13:56:20.916Z,46.03
2019-03-01T13:58:48.044Z,49.10
2019-03-01T14:01:14.951Z,49.90
2019-03-01T14:03:41.895Z,48.60
2019-03-01T14:06:08.715Z,47.10
2019-03-01T14:08:37.399Z,45.80
2019-03-01T14:11:04.371Z,46.17
2019-03-01T14:13:31.257Z,45.47
2019-03-01T14:15:58.108Z,45.53
2019-03-01T14:18:25.134Z,45.87
2019-03-01T14:20:54.455Z,46.30
2019-03-01T14:23:21.236Z,44.97
2019-03-01T14:25:49.520Z,45.50
2019-03-01T14:28:16.523Z,42.50
2019-03-01T14:30:43.298Z,45.00
2019-03-01T14:33:10.290Z,42.53
2019-03-01T14:35:37.191Z,43.47
2019-03-01T14:38:04.187Z,43.27
2019-03-01T14:40:31.069Z,45.20
2019-03-01T14:42:58.052Z,43.30
2019-03-01T14:45:25.784Z,45.73
2019-03-01T14:47:53.031Z,46.20
2019-03-01T14:50:21.147Z,46.30
2019-03-01T14:52:48.152Z,46.27
2019-03-01T14:55:19.794Z,46.43
2019-03-01T14:58:11.359Z,46.63
2019-03-01T15:00:49.540Z,46.77
2019-03-01T15:03:30.552Z,45.10
2019-03-01T15:05:57.907Z,45.67
2019-03-01T15:08:24.773Z,47.10
2019-03-01T15:10:51.707Z,46.10
2019-03-01T15:13:18.554Z,45.20
2019-03-01T15:15:45.432Z,45.40
2019-03-01T15:18:12.494Z,43.47
2019-03-01T15:20:39.247Z,43.17
2019-03-01T15:23:05.964Z,45.63
2019-03-01T15:25:33.000Z,42.77
2019-03-01T15:27:59.743Z,41.67
2019-03-01T15:30:26.535Z,45.53
2019-03-01T15:32:53.273Z,44.37
2019-03-01T15:35:20.135Z,44.10
2019-03-01T15:37:46.931Z,45.10
2019-03-01T15:40:13.775Z,44.27
2019-03-01T15:42:40.495Z,44.00
2019-03-01T15:45:08.203Z,43.47
2019-03-01T15:47:35.055Z,39.07
2019-03-01T15:50:02.480Z,45.90
2019-03-01T15:52:29.292Z,44.97
2019-03-01T15:54:56.167Z,41.73
2019-03-01T15:57:23.083Z,40.27
2019-03-01T15:59:50.467Z,39.43
2019-03-01T16:02:17.335Z,40.00
2019-03-01T16:04:44.287Z,40.57
2019-03-01T16:07:11.003Z,40.90
2019-03-01T16:09:37.723Z,38.77
2019-03-01T16:12:04.599Z,37.27
2019-03-01T16:14:31.507Z,38.17
2019-03-01T16:16:58.498Z,36.20
2019-03-01T16:19:25.278Z,38.60
2019-03-01T16:21:52.107Z,36.53
2019-03-01T16:24:19.013Z,38.50
2019-03-01T16:26:45.995Z,37.57
2019-03-01T16:29:13.715Z,35.97
2019-03-01T16:31:40.667Z,43.65
2019-03-01T16:34:07.578Z,38.40
2019-03-01T16:36:38.223Z,37.03
2019-03-01T16:39:10.126Z,36.80
2019-03-01T16:41:39.683Z,36.17
2019-03-01T16:44:07.709Z,35.63
2019-03-01T16:46:34.583Z,35.53
2019-03-01T16:49:01.484Z,34.43
2019-03-01T16:51:28.332Z,36.20
2019-03-01T16:53:55.095Z,35.70
2019-03-01T16:56:21.851Z,35.93
2019-03-01T16:58:48.616Z,35.20
2019-03-01T17:01:15.626Z,34.67
2019-03-01T17:03:42.480Z,34.87
2019-03-01T17:06:10.502Z,33.40
2019-03-01T17:08:39.603Z,37.50
2019-03-01T17:11:07.022Z,43.67
2019-03-01T17:13:33.871Z,36.30
2019-03-01T17:16:00.765Z,32.20
2019-03-01T17:18:27.627Z,31.53
2019-03-01T17:20:54.512Z,31.97
2019-03-01T17:23:21.223Z,29.77
2019-03-01T17:25:48.219Z,28.83
2019-03-01T17:28:16.367Z,29.90
2019-03-01T17:30:46.680Z,29.07
2019-03-01T17:33:12.842Z,26.83
2019-03-01T17:35:41.082Z,30.00
2019-03-01T17:38:08.791Z,33.10
2019-03-01T17:40:35.892Z,25.57
2019-03-01T17:43:03.038Z,26.57
2019-03-01T17:45:29.915Z,27.80
2019-03-01T17:47:56.793Z,31.77
2019-03-01T17:50:23.629Z,29.73
2019-03-01T17:52:50.537Z,27.10
2019-03-01T17:55:17.512Z,26.50
2019-03-01T17:57:44.479Z,26.90
2019-03-01T18:00:13.707Z,25.43
2019-03-01T18:02:40.578Z,26.63
2019-03-01T18:05:08.127Z,25.27
2019-03-01T18:07:35.186Z,25.53
2019-03-01T18:10:02.319Z,23.10
2019-03-01T18:12:29.331Z,24.37
2019-03-01T18:14:56.192Z,23.23
2019-03-01T18:17:23.062Z,23.70
2019-03-01T18:19:49.831Z,22.80
2019-03-01T18:22:16.695Z,21.63
2019-03-01T18:24:43.566Z,22.03
2019-03-01T18:27:12.279Z,19.20
2019-03-01T18:29:42.404Z,19.77
2019-03-01T18:32:10.031Z,18.27
2019-03-01T18:34:37.507Z,19.97
2019-03-01T18:37:17.909Z,17.63
2019-03-01T18:39:33.288Z,19.30
2019-03-01T18:42:02.470Z,17.23
2019-03-01T18:44:28.687Z,17.53
2019-03-01T18:46:56.374Z,17.53
2019-03-01T18:49:23.350Z,16.37
2019-03-01T18:51:50.146Z,16.47
2019-03-01T18:54:17.052Z,16.17
2019-03-01T18:56:44.075Z,16.13
2019-03-01T18:59:10.921Z,15.47
2019-03-01T19:01:37.871Z,14.67
2019-03-01T19:04:04.928Z,14.20
2019-03-01T19:06:32.019Z,15.30
2019-03-01T19:08:58.880Z,14.40
2019-03-01T19:11:25.920Z,13.43
2019-03-01T19:13:52.916Z,13.83
2019-03-01T19:16:19.855Z,13.87
2019-03-01T19:18:48.292Z,15.30
2019-03-01T19:21:17.377Z,16.13
2019-03-01T19:23:44.411Z,16.73
2019-03-01T19:26:11.210Z,19.00
2019-03-01T19:28:38.967Z,20.30
2019-03-01T19:31:06.207Z,22.17
2019-03-01T19:33:34.636Z,23.67
2019-03-01T19:36:03.555Z,24.63
2019-03-01T19:38:30.819Z,27.50
2019-03-01T19:40:57.535Z,27.73
2019-03-01T19:43:24.451Z,26.83
2019-03-01T19:45:51.434Z,26.90
2019-03-01T19:48:18.227Z,25.07
2019-03-01T19:50:45.111Z,24.57
2019-03-01T19:53:12.135Z,23.50
2019-03-01T19:55:39.115Z,23.60
2019-03-01T19:58:08.665Z,21.50
2019-03-01T20:00:35.198Z,22.33
2019-03-01T20:03:02.018Z,21.37
2019-03-01T20:05:31.670Z,20.83
2019-03-01T20:07:57.819Z,22.50
2019-03-01T20:10:24.572Z,19.60
2019-03-01T20:12:53.467Z,18.93
2019-03-01T20:15:42.798Z,18.63
2019-03-01T20:18:09.733Z,18.20
2019-03-01T20:20:37.911Z,17.20
2019-03-01T20:23:04.631Z,17.33
2019-03-01T20:25:31.515Z,17.93
2019-03-01T20:27:58.291Z,17.20
2019-03-01T20:30:30.315Z,17.33
2019-03-01T20:32:54.463Z,17.90
2019-03-01T20:35:21.555Z,17.40
2019-03-01T20:37:48.465Z,17.40
2019-03-01T20:40:15.619Z,18.13
2019-03-01T20:42:42.847Z,18.70
2019-03-01T20:45:12.440Z,18.73
2019-03-01T20:47:39.320Z,19.97
2019-03-01T20:50:06.708Z,20.20
2019-03-01T20:52:34.847Z,21.43
2019-03-01T20:55:01.993Z,21.77
2019-03-01T20:57:29.347Z,21.03
2019-03-01T20:59:56.347Z,23.37
2019-03-01T21:02:23.348Z,25.60
2019-03-01T21:04:53.591Z,23.07
2019-03-01T21:07:18.779Z,22.43
2019-03-01T21:09:45.583Z,22.43
2019-03-01T21:12:12.423Z,21.07
2019-03-01T21:14:39.381Z,23.47
2019-03-01T21:17:06.131Z,21.40
2019-03-01T21:19:32.984Z,22.67
2019-03-01T21:22:01.546Z,21.93
2019-03-01T21:24:28.372Z,22.23
2019-03-01T21:26:55.263Z,23.53
2019-03-01T21:29:22.117Z,22.43
2019-03-01T21:31:48.907Z,24.33
2019-03-01T21:34:15.854Z,23.80
2019-03-01T21:36:42.639Z,23.43
2019-03-01T21:39:09.809Z,22.73
2019-03-01T21:41:37.395Z,22.87
2019-03-01T21:44:04.347Z,23.53
2019-03-01T21:46:34.055Z,22.40
2019-03-01T21:49:01.550Z,24.03
2019-03-01T21:51:28.430Z,23.00
2019-03-01T21:53:55.182Z,24.40
2019-03-01T21:56:23.094Z,23.97
2019-03-01T21:58:49.944Z,25.40
2019-03-01T22:01:16.935Z,24.43
2019-03-01T22:03:43.803Z,24.57
2019-03-01T22:06:10.648Z,22.57
2019-03-01T22:08:44.777Z,25.43
2019-03-01T22:11:13.607Z,24.20
2019-03-01T22:13:41.336Z,24.87
2019-03-01T22:16:08.482Z,27.07
2019-03-01T22:18:36.337Z,27.37
2019-03-01T22:21:03.395Z,25.03
2019-03-01T22:23:30.252Z,26.03
2019-03-01T22:25:57.140Z,25.77
2019-03-01T22:28:24.129Z,25.17
2019-03-01T22:30:51.189Z,27.87
2019-03-01T22:33:20.853Z,26.07
2019-03-01T22:35:46.610Z,26.47
2019-03-01T22:38:17.384Z,24.47
2019-03-01T22:40:44.235Z,24.33
2019-03-01T22:43:11.022Z,27.10
2019-03-01T22:45:37.771Z,24.33
2019-03-01T22:48:04.501Z,24.97
2019-03-01T22:50:31.387Z,24.33
2019-03-01T22:52:58.293Z,27.00
2019-03-01T22:55:25.275Z,25.17
2019-03-01T22:57:52.079Z,25.37
2019-03-01T23:01:18.767Z,24.20
2019-03-01T23:03:51.556Z,24.80
2019-03-01T23:06:19.489Z,24.23
2019-03-01T23:08:46.303Z,27.10
2019-03-01T23:11:13.218Z,26.27
2019-03-01T23:13:39.947Z,24.83
2019-03-01T23:16:06.879Z,24.57
2019-03-01T23:18:33.631Z,26.20
2019-03-01T23:21:01.069Z,25.93
2019-03-01T23:23:28.808Z,25.50
2019-03-01T23:25:55.570Z,25.47
2019-03-01T23:28:22.452Z,27.43
2019-03-01T23:30:49.312Z,28.80
2019-03-01T23:33:16.185Z,24.90
2019-03-01T23:35:43.302Z,27.10
2019-03-01T23:38:11.555Z,23.93
2019-03-01T23:40:38.964Z,25.83
2019-03-01T23:43:05.862Z,24.60
2019-03-01T23:45:32.717Z,23.73
2019-03-01T23:47:59.539Z,25.70
2019-03-01T23:50:26.377Z,23.30
2019-03-01T23:52:54.919Z,25.00
2019-03-01T23:55:22.268Z,23.10
2019-03-01T23:57:49.314Z,24.50
